CDT,Max TemperatureF,Mean TemperatureF,Min TemperatureF,Max Dew PointF,MeanDew PointF,Min DewpointF,Max Humidity, Mean Humidity, Min Humidity, Max Sea Level PressureIn, Mean Sea Level PressureIn, Min Sea Level PressureIn, Max VisibilityMiles, Mean VisibilityMiles, Min VisibilityMiles, Max Wind SpeedMPH, Mean Wind SpeedMPH, Max Gust SpeedMPH,PrecipitationIn, CloudCover, Events, WindDirDegrees
2012-9-1,81,70,59,61,56,50,85,64,40,30.13,30.08,30.01,10,10,10,15,7,18,0.00,0,,88
2012-9-2,89,72,55,71,62,53,94,74,53,30.02,29.92,29.83,10,10,10,12,5,20,0.00,0,,139
2012-9-3,89,76,62,68,63,54,99,69,36,29.94,29.90,29.86,10,10,7,9,3,,0.00,0,,55
2012-9-4,89,74,60,69,61,51,100,70,27,29.90,29.83,29.76,10,9,0,13,4,17,0.00,0,Fog-Rain,265
2012-9-5,79,66,54,59,54,45,98,67,32,29.93,29.86,29.73,10,10,10,16,6,26,0.00,0,Rain,294
2012-9-6,79,62,45,62,53,45,97,72,37,29.99,29.93,29.87,10,10,10,9,2,16,0.00,3,Rain,116
2012-9-7,69,60,50,57,52,46,94,72,47,30.07,30.00,29.90,10,10,10,21,11,29,0.00,4,Rain,337
2012-9-8,77,60,42,51,47,42,98,67,32,30.08,29.99,29.85,10,10,10,28,8,38,0.00,2,,286
2012-9-9,74,62,49,54,51,49,97,72,43,30.22,30.14,30.08,10,10,10,10,5,,0.00,0,,320
2012-9-10,82,66,49,54,51,46,92,59,34,30.09,29.93,29.79,10,10,10,23,6,32,0.00,0,,168
2012-9-11,94,78,62,58,56,52,74,50,28,29.88,29.75,29.67,10,10,10,21,10,30,0.00,0,,182
2012-9-12,69,62,54,54,50,40,95,75,41,30.25,30.14,29.90,10,10,10,18,7,25,0.04,4,Rain,256
2012-9-13,76,60,43,53,42,33,100,61,22,30.34,30.29,30.25,10,9,0,12,2,18,0.00,1,Fog,306
2012-9-14,74,56,39,46,42,38,94,52,31,30.33,30.29,30.23,10,10,10,12,6,21,0.00,0,,60
2012-9-15,85,64,43,52,46,42,97,54,26,30.23,30.08,29.96,10,10,10,13,6,24,0.00,0,,177
2012-9-16,79,68,57,57,51,45,94,59,40,29.99,29.92,29.88,10,10,10,14,6,24,0.00,0,Thunderstorm,277
2012-9-17,62,52,41,50,43,38,99,71,42,30.04,30.00,29.94,10,10,3,17,10,24,0.33,4,Rain-Thunderstorm,320
2012-9-18,59,48,36,44,38,32,100,69,36,30.06,29.99,29.85,10,10,10,9,3,17,0.00,3,,275
2012-9-19,74,60,47,68,43,37,88,56,34,29.98,29.76,29.65,10,10,8,24,9,34,0.00,2,Rain,246
2012-9-20,68,54,41,42,38,34,87,56,32,29.95,29.91,29.86,10,10,10,17,8,31,0.00,1,,279
2012-9-21,64,55,44,50,41,31,95,64,34,29.95,29.86,29.82,10,10,10,28,7,39,0.00,5,Rain,306
2012-9-22,59,48,36,41,34,27,84,61,34,30.26,30.15,29.96,10,10,7,22,14,31,0.00,3,,315
2012-9-23,60,44,29,38,32,29,97,67,31,30.33,30.26,30.16,10,10,5,12,4,20,0.00,0,,289
2012-9-24,78,54,31,43,37,30,96,54,24,30.15,29.90,29.76,10,10,10,15,4,23,0.00,0,,244
2012-9-25,69,55,41,45,41,36,87,63,34,29.97,29.89,29.79,10,10,7,9,4,,0.00,0,,1
2012-9-26,64,50,35,42,37,33,96,67,37,30.21,30.10,29.96,10,10,10,10,5,18,0.00,0,,9
2012-9-27,69,50,31,41,37,31,97,69,32,30.27,30.22,30.17,10,10,10,7,1,,0.00,0,,91
2012-9-28,77,56,35,48,41,34,100,66,26,30.21,30.16,30.11,10,9,4,6,1,,0.00,0,,224
2012-9-29,80,63,46,48,42,37,84,57,26,30.14,30.09,30.01,10,10,7,8,2,,0.00,0,,293
2012-9-30,79,60,41,49,44,40,94,61,30,30.03,29.96,29.88,10,10,7,6,1,,0.00,0,,132